createdAt,value
2019-04-25T12:34:56.037Z,16.00
2019-04-25T12:39:01.213Z,16.00
2019-04-25T12:43:06.888Z,14.50
2019-04-25T12:47:18.181Z,14.50
2019-04-25T12:51:23.207Z,14.70
2019-04-25T12:55:34.178Z,15.80
2019-04-25T12:59:40.376Z,15.50
2019-04-25T13:03:45.327Z,14.00
2019-04-25T13:07:51.468Z,13.70
2019-04-25T13:11:57.298Z,12.30
2019-04-25T13:16:02.279Z,13.10
2019-04-25T13:20:07.684Z,12.40
2019-04-25T13:24:12.531Z,11.80
2019-04-25T13:28:34.942Z,12.00
2019-04-25T13:32:57.894Z,11.80
2019-04-25T13:37:04.978Z,12.80
2019-04-25T13:41:10.157Z,12.90
2019-04-25T13:45:15.834Z,12.60
2019-04-25T13:49:20.749Z,11.20
2019-04-25T13:53:25.983Z,11.30
2019-04-25T13:57:30.879Z,12.50
2019-04-25T14:01:36.528Z,12.20
2019-04-25T14:05:41.550Z,12.00
2019-04-25T14:09:46.708Z,14.50
2019-04-25T14:13:51.899Z,15.00
2019-04-25T14:18:07.872Z,14.50
2019-04-25T14:22:12.950Z,13.90
2019-04-25T14:26:18.160Z,13.40
2019-04-25T14:30:28.225Z,14.40
2019-04-25T14:34:39.445Z,14.10
2019-04-25T14:38:51.487Z,13.80
2019-04-25T14:43:02.460Z,13.10
2019-04-25T14:47:13.590Z,12.60
2019-04-25T14:51:22.992Z,12.10
2019-04-25T14:55:59.690Z,12.00
2019-04-25T15:00:08.039Z,13.60
2019-04-25T15:04:13.045Z,14.00
2019-04-25T15:08:18.060Z,12.00
2019-04-25T15:12:24.766Z,11.40
2019-04-25T15:16:29.910Z,13.20
2019-04-25T15:20:35.178Z,15.00
2019-04-25T15:24:40.373Z,18.10
2019-04-25T15:28:45.729Z,19.60
2019-04-25T15:32:50.858Z,20.90
2019-04-25T15:37:01.175Z,22.10
2019-04-25T15:41:18.219Z,23.40
2019-04-25T15:45:41.453Z,22.90
2019-04-25T15:49:46.609Z,24.10
2019-04-25T15:53:51.545Z,25.00
2019-04-25T15:58:00.259Z,25.30
2019-04-25T16:02:08.199Z,25.40
2019-04-25T16:06:13.567Z,26.00
2019-04-25T16:10:18.658Z,25.90
2019-04-25T16:14:23.874Z,25.70
2019-04-25T16:18:28.859Z,26.20
2019-04-25T16:22:34.418Z,26.70
2019-04-25T16:26:39.905Z,26.20
2019-04-25T16:30:44.887Z,26.30
2019-04-25T16:34:49.826Z,27.30
2019-04-25T16:39:19.445Z,28.10
2019-04-25T16:43:28.603Z,27.90
2019-04-25T16:47:35.161Z,28.70
2019-04-25T16:51:40.066Z,29.10
2019-04-25T16:55:44.986Z,30.00
2019-04-25T16:59:50.256Z,30.80
2019-04-25T17:03:55.198Z,30.30
2019-04-25T17:08:01.470Z,30.50
2019-04-25T17:12:08.353Z,31.40
2019-04-25T17:16:30.703Z,30.60
2019-04-25T17:20:40.436Z,32.20
2019-04-25T17:24:45.910Z,33.30
2019-04-25T17:28:52.356Z,33.20
2019-04-25T17:33:19.068Z,33.20
2019-04-25T17:37:31.933Z,32.80
2019-04-25T17:42:13.903Z,33.00
2019-04-25T17:46:21.172Z,33.00
2019-04-25T17:50:26.054Z,32.90
2019-04-25T17:54:32.808Z,34.60
2019-04-25T17:58:37.901Z,35.30
2019-04-25T18:02:43.530Z,35.80
2019-04-25T18:06:48.570Z,36.20
2019-04-25T18:10:53.461Z,36.40
2019-04-25T18:15:00.988Z,37.30
2019-04-25T18:19:09.995Z,37.70
2019-04-25T18:23:35.135Z,37.70
2019-04-25T18:27:50.287Z,37.60
2019-04-25T18:31:55.446Z,37.50
2019-04-25T18:36:12.447Z,40.20
2019-04-25T18:40:30.246Z,42.40
2019-04-25T18:44:35.625Z,40.60
2019-04-25T18:48:42.768Z,41.30
2019-04-25T18:52:57.304Z,40.60
2019-04-25T18:57:19.554Z,41.50
2019-04-25T19:01:41.824Z,44.00
2019-04-25T19:05:58.373Z,45.90
2019-04-25T19:10:04.730Z,46.60
2019-04-25T19:14:10.320Z,47.90
2019-04-25T19:18:16.201Z,49.60
2019-04-25T19:22:21.877Z,51.20
2019-04-25T19:26:26.753Z,52.00
2019-04-25T19:30:32.651Z,53.70
2019-04-25T19:34:40.166Z,54.40
2019-04-25T19:38:46.713Z,55.00
2019-04-25T19:42:55.780Z,55.30
2019-04-25T19:47:00.984Z,56.30
2019-04-25T19:51:06.426Z,56.30
2019-04-25T19:55:11.351Z,56.00
2019-04-25T19:59:16.264Z,56.50
2019-04-25T20:12:02.015Z,57.70
2019-04-25T20:16:08.683Z,57.10
2019-04-25T20:29:05.681Z,59.20
2019-04-25T20:33:10.911Z,59.40
2019-04-25T20:37:18.439Z,60.90
2019-04-25T20:41:23.550Z,61.30
2019-04-25T20:45:28.619Z,59.70
2019-04-25T20:49:33.619Z,61.00
2019-04-25T20:54:14.245Z,61.00
2019-04-25T20:58:19.159Z,61.70
2019-04-25T21:02:24.044Z,62.30
2019-04-25T21:06:33.224Z,63.00
2019-04-25T21:10:38.221Z,61.60
2019-04-25T21:15:00.405Z,64.00
2019-04-25T21:19:12.047Z,63.80
2019-04-25T21:23:17.182Z,64.10
2019-04-25T21:27:22.162Z,65.10
2019-04-25T21:31:27.024Z,64.80
2019-04-25T21:35:31.928Z,66.00
2019-04-25T21:39:52.337Z,65.90
2019-04-25T21:44:02.276Z,65.90
2019-04-25T21:48:07.426Z,66.60
2019-04-25T21:52:12.584Z,67.30
2019-04-25T21:56:17.749Z,66.70
2019-04-25T22:00:40.089Z,67.40
2019-04-25T22:04:45.157Z,67.50
2019-04-25T22:08:50.868Z,69.00
2019-04-25T22:12:57.714Z,69.20
2019-04-25T22:17:02.359Z,70.00
2019-04-25T22:21:07.746Z,70.80
2019-04-25T22:25:13.012Z,72.00
2019-04-25T22:29:18.002Z,70.70
2019-04-25T22:33:40.366Z,71.30
2019-04-25T22:37:45.533Z,72.20
2019-04-25T22:41:50.809Z,73.50
2019-04-25T22:45:56.558Z,73.00
2019-04-25T22:50:02.557Z,74.20
2019-04-25T22:54:07.974Z,74.00
2019-04-25T22:58:12.946Z,74.00
2019-04-25T23:02:33.343Z,75.40
2019-04-25T23:06:38.218Z,75.40
2019-04-25T23:10:43.204Z,75.30
2019-04-25T23:14:48.390Z,76.10
2019-04-25T23:18:53.310Z,77.40
2019-04-25T23:22:58.226Z,77.00
2019-04-25T23:27:14.333Z,77.90
2019-04-25T23:31:22.915Z,77.50
2019-04-25T23:35:30.049Z,78.30
2019-04-25T23:39:34.348Z,78.60
